Terminal Aerodrome Forecast
Issued by NWS Sterling, VA

Current Version | Previous Version | Graphics & Text | Print | Product List | Glossary On
Versions: 1 2 3 4 5 6 7 8 9 10 11 12
888
FTUS41 KLWX 231730
TAFMRB
TAF
KMRB 231730Z 2318/2418 21006KT P6SM SCT050
     FM231900 21006KT P6SM BKN050
     FM240900 VRB03KT 3SM BR SCT080
     FM241400 17005KT 5SM BR BKN120
     FM241500 18006KT P6SM BKN130=

USA.gov is the U.S. government's official web portal to all federal, state and local government web resources and services.